createdAt,value
2024-02-29T14:49:43.500Z,6.85
2024-02-29T14:54:50.881Z,6.86
2024-02-29T14:59:58.387Z,6.95
2024-02-29T15:05:10.510Z,7.04
2024-02-29T15:10:22.309Z,7.12
2024-02-29T15:15:33.361Z,7.19
2024-02-29T15:20:47.996Z,7.24
2024-02-29T15:25:55.921Z,7.29
2024-02-29T15:31:03.282Z,7.33
2024-02-29T15:36:13.736Z,7.36
2024-02-29T15:41:21.681Z,7.39
2024-02-29T15:46:27.685Z,7.41
2024-02-29T15:51:35.543Z,7.42
2024-02-29T15:56:47.538Z,7.44
2024-02-29T16:01:55.481Z,7.45
2024-02-29T16:07:02.150Z,7.48
2024-02-29T16:12:13.225Z,7.50
2024-02-29T16:17:20.666Z,7.51
2024-02-29T16:22:28.706Z,7.50
2024-02-29T16:27:36.600Z,7.48
2024-02-29T16:32:47.309Z,7.47
2024-02-29T16:37:57.807Z,7.49
2024-02-29T16:43:07.388Z,7.49
2024-02-29T16:48:17.844Z,7.49
2024-02-29T16:53:25.903Z,7.49
2024-02-29T16:58:37.196Z,7.49
2024-02-29T17:03:48.895Z,7.50
2024-02-29T17:08:56.485Z,7.50
2024-02-29T17:14:04.046Z,7.51
2024-02-29T17:19:11.655Z,7.51
2024-02-29T17:24:24.614Z,7.51
2024-02-29T17:29:32.579Z,7.50
2024-02-29T17:34:39.987Z,7.49
2024-02-29T17:39:54.636Z,7.47
2024-02-29T17:45:12.415Z,7.46
2024-02-29T17:50:23.903Z,7.46
2024-02-29T17:55:31.648Z,7.46
2024-02-29T18:00:41.543Z,7.46
2024-02-29T18:05:52.079Z,7.46
2024-02-29T18:10:59.765Z,7.46
2024-02-29T18:16:08.643Z,7.48
2024-02-29T18:21:17.263Z,7.48
2024-02-29T18:26:24.716Z,7.49
2024-02-29T18:31:55.786Z,7.49
2024-02-29T18:37:03.292Z,7.51
2024-02-29T18:42:11.537Z,7.50
2024-02-29T18:47:21.879Z,7.50
2024-02-29T18:52:30.924Z,7.49
2024-02-29T18:57:49.664Z,7.51
2024-02-29T19:02:59.926Z,7.54
2024-02-29T19:08:22.642Z,7.56
2024-02-29T19:13:39.708Z,7.58
2024-02-29T19:18:58.518Z,7.60
2024-02-29T19:24:13.052Z,7.61
2024-02-29T19:29:22.753Z,7.63
2024-02-29T19:34:30.818Z,7.65
2024-02-29T19:39:41.414Z,7.65
2024-02-29T19:44:54.410Z,7.66
2024-02-29T19:50:57.000Z,7.66
2024-02-29T19:57:11.624Z,7.67
2024-02-29T20:02:43.263Z,7.68
2024-02-29T20:07:57.629Z,7.69
2024-02-29T20:13:09.339Z,7.70
2024-02-29T20:18:24.571Z,7.71
2024-02-29T20:23:33.059Z,7.70
2024-02-29T20:28:48.938Z,7.70
2024-02-29T20:34:00.167Z,7.69
2024-02-29T20:39:14.562Z,7.71
2024-02-29T20:44:43.785Z,7.71
2024-02-29T20:50:35.362Z,7.73
2024-02-29T20:56:26.640Z,7.74
2024-02-29T21:15:04.655Z,7.80
2024-02-29T21:20:18.013Z,7.85
2024-02-29T21:25:44.256Z,7.89
2024-02-29T21:31:10.069Z,7.91
2024-02-29T21:37:30.786Z,7.95
2024-02-29T21:43:03.192Z,7.96
2024-02-29T21:55:12.537Z,7.91
2024-02-29T22:00:30.573Z,7.88
2024-02-29T22:06:32.958Z,7.85
2024-02-29T22:11:58.079Z,7.84
2024-02-29T22:17:11.640Z,7.82
2024-02-29T22:22:22.576Z,7.83
2024-02-29T22:27:44.834Z,7.82
2024-02-29T22:33:13.950Z,7.80
2024-02-29T22:38:32.819Z,7.76
2024-02-29T22:43:47.238Z,7.73
2024-02-29T22:49:06.356Z,7.71
2024-02-29T22:54:13.035Z,7.70
2024-02-29T22:59:23.621Z,7.69
2024-02-29T23:04:41.565Z,7.68
2024-02-29T23:09:52.655Z,7.68
2024-02-29T23:15:05.406Z,7.69
2024-02-29T23:20:18.869Z,7.70
2024-02-29T23:25:28.461Z,7.70
2024-02-29T23:30:36.883Z,7.70
2024-02-29T23:35:47.323Z,7.73
2024-02-29T23:40:56.468Z,7.74
2024-02-29T23:46:08.786Z,7.75
2024-02-29T23:51:18.036Z,7.76
2024-02-29T23:56:28.024Z,7.75
